sensor_id;sensor_type;location;lat;lon;timestamp;pressure;altitude;pressure_sealevel;temperature;humidity
45941;BME280;31858;46.008;8.978;2024-03-02T00:03:53;93711.25;;;5.25;100.00
45941;BME280;31858;46.008;8.978;2024-03-02T00:13:55;93700.94;;;5.13;100.00
45941;BME280;31858;46.008;8.978;2024-03-02T00:23:58;93703.13;;;5.08;100.00
45941;BME280;31858;46.008;8.978;2024-03-02T00:34:01;93695.91;;;5.05;100.00
45941;BME280;31858;46.008;8.978;2024-03-02T00:44:09;93699.97;;;4.99;100.00
45941;BME280;31858;46.008;8.978;2024-03-02T00:54:13;93691.28;;;4.98;100.00
45941;BME280;31858;46.008;8.978;2024-03-02T01:04:17;93698.09;;;4.99;100.00
45941;BME280;31858;46.008;8.978;2024-03-02T01:14:18;93700.78;;;5.03;100.00
45941;BME280;31858;46.008;8.978;2024-03-02T01:24:21;93707.59;;;5.04;100.00
45941;BME280;31858;46.008;8.978;2024-03-02T01:34:23;93700.06;;;5.06;100.00
45941;BME280;31858;46.008;8.978;2024-03-02T01:44:26;93684.94;;;5.03;100.00
45941;BME280;31858;46.008;8.978;2024-03-02T01:54:28;93681.19;;;5.04;100.00
45941;BME280;31858;46.008;8.978;2024-03-02T02:04:30;93676.66;;;5.04;100.00
45941;BME280;31858;46.008;8.978;2024-03-02T02:14:33;93685.34;;;5.05;100.00
45941;BME280;31858;46.008;8.978;2024-03-02T02:24:39;93673.63;;;5.02;100.00
45941;BME280;31858;46.008;8.978;2024-03-02T02:34:41;93675.16;;;5.03;100.00
45941;BME280;31858;46.008;8.978;2024-03-02T02:44:44;93661.22;;;5.06;100.00
45941;BME280;31858;46.008;8.978;2024-03-02T02:54:45;93650.97;;;5.01;100.00
45941;BME280;31858;46.008;8.978;2024-03-02T03:04:48;93647.22;;;5.02;100.00
45941;BME280;31858;46.008;8.978;2024-03-02T03:14:50;93646.09;;;5.03;100.00
45941;BME280;31858;46.008;8.978;2024-03-02T03:24:53;93643.81;;;5.02;100.00
45941;BME280;31858;46.008;8.978;2024-03-02T03:34:54;93647.94;;;4.99;100.00
45941;BME280;31858;46.008;8.978;2024-03-02T03:44:57;93653.31;;;5.06;100.00
45941;BME280;31858;46.008;8.978;2024-03-02T03:54:59;93658.91;;;5.01;100.00
45941;BME280;31858;46.008;8.978;2024-03-02T04:05:02;93659.66;;;5.02;100.00
45941;BME280;31858;46.008;8.978;2024-03-02T04:15:09;93678.91;;;5.02;100.00
45941;BME280;31858;46.008;8.978;2024-03-02T04:25:13;93675.44;;;4.98;100.00
45941;BME280;31858;46.008;8.978;2024-03-02T04:35:14;93674.34;;;4.99;100.00
45941;BME280;31858;46.008;8.978;2024-03-02T04:45:17;93676.16;;;4.95;100.00
45941;BME280;31858;46.008;8.978;2024-03-02T04:55:19;93677.31;;;4.98;100.00
45941;BME280;31858;46.008;8.978;2024-03-02T05:05:52;93688.53;;;4.91;100.00
45941;BME280;31858;46.008;8.978;2024-03-02T05:15:53;93702.16;;;4.93;100.00
45941;BME280;31858;46.008;8.978;2024-03-02T05:25:56;93712.34;;;4.95;100.00
45941;BME280;31858;46.008;8.978;2024-03-02T05:35:58;93721.81;;;4.96;100.00
45941;BME280;31858;46.008;8.978;2024-03-02T05:46:01;93716.88;;;4.94;100.00
45941;BME280;31858;46.008;8.978;2024-03-02T05:56:03;93721.81;;;4.96;100.00
45941;BME280;31858;46.008;8.978;2024-03-02T06:06:06;93730.47;;;4.96;100.00
45941;BME280;31858;46.008;8.978;2024-03-02T06:16:08;93731.19;;;4.93;100.00
45941;BME280;31858;46.008;8.978;2024-03-02T06:26:11;93736.47;;;4.93;100.00
45941;BME280;31858;46.008;8.978;2024-03-02T06:36:12;93750.47;;;4.97;100.00
45941;BME280;31858;46.008;8.978;2024-03-02T06:46:17;93757.63;;;4.97;100.00
45941;BME280;31858;46.008;8.978;2024-03-02T06:56:18;93764.81;;;4.96;100.00
45941;BME280;31858;46.008;8.978;2024-03-02T07:06:21;93772.41;;;5.01;100.00
45941;BME280;31858;46.008;8.978;2024-03-02T07:16:23;93786.78;;;5.04;100.00
45941;BME280;31858;46.008;8.978;2024-03-02T07:26:31;93789.84;;;5.06;100.00
45941;BME280;31858;46.008;8.978;2024-03-02T07:36:33;93795.47;;;5.04;100.00
45941;BME280;31858;46.008;8.978;2024-03-02T07:46:38;93804.97;;;5.09;100.00
45941;BME280;31858;46.008;8.978;2024-03-02T07:56:39;93813.72;;;5.13;100.00
45941;BME280;31858;46.008;8.978;2024-03-02T08:06:42;93819.06;;;5.16;100.00
45941;BME280;31858;46.008;8.978;2024-03-02T08:16:45;93824.00;;;5.21;100.00
45941;BME280;31858;46.008;8.978;2024-03-02T08:26:48;93842.63;;;5.29;100.00
45941;BME280;31858;46.008;8.978;2024-03-02T08:36:49;93849.06;;;5.31;100.00
45941;BME280;31858;46.008;8.978;2024-03-02T08:46:53;93842.97;;;5.27;100.00
45941;BME280;31858;46.008;8.978;2024-03-02T08:56:54;93851.00;;;5.34;100.00
45941;BME280;31858;46.008;8.978;2024-03-02T09:06:57;93858.97;;;5.38;100.00
45941;BME280;31858;46.008;8.978;2024-03-02T09:16:59;93861.31;;;5.43;100.00
45941;BME280;31858;46.008;8.978;2024-03-02T09:27:02;93872.31;;;5.45;100.00
45941;BME280;31858;46.008;8.978;2024-03-02T09:37:03;93868.94;;;5.48;100.00
45941;BME280;31858;46.008;8.978;2024-03-02T09:47:07;93875.88;;;5.56;100.00
45941;BME280;31858;46.008;8.978;2024-03-02T09:57:09;93871.91;;;5.69;100.00
45941;BME280;31858;46.008;8.978;2024-03-02T10:07:14;93869.06;;;5.81;100.00
45941;BME280;31858;46.008;8.978;2024-03-02T10:17:17;93876.34;;;5.88;100.00
45941;BME280;31858;46.008;8.978;2024-03-02T10:27:25;93878.94;;;5.84;100.00
45941;BME280;31858;46.008;8.978;2024-03-02T10:37:28;93890.63;;;5.83;100.00
45941;BME280;31858;46.008;8.978;2024-03-02T10:47:32;93884.63;;;5.86;100.00
45941;BME280;31858;46.008;8.978;2024-03-02T10:57:41;93875.72;;;5.95;100.00
45941;BME280;31858;46.008;8.978;2024-03-02T11:07:45;93877.72;;;6.05;100.00
45941;BME280;31858;46.008;8.978;2024-03-02T11:17:47;93878.75;;;5.97;100.00
45941;BME280;31858;46.008;8.978;2024-03-02T11:28:01;93872.00;;;5.99;100.00
45941;BME280;31858;46.008;8.978;2024-03-02T11:38:04;93858.88;;;6.06;100.00
45941;BME280;31858;46.008;8.978;2024-03-02T11:48:08;93859.25;;;6.08;100.00
45941;BME280;31858;46.008;8.978;2024-03-02T11:58:15;93833.59;;;6.09;100.00
45941;BME280;31858;46.008;8.978;2024-03-02T12:08:19;93818.16;;;6.14;100.00
45941;BME280;31858;46.008;8.978;2024-03-02T12:18:21;93827.69;;;6.22;100.00
45941;BME280;31858;46.008;8.978;2024-03-02T12:28:24;93817.75;;;6.12;100.00
45941;BME280;31858;46.008;8.978;2024-03-02T12:38:26;93804.50;;;6.09;100.00
45941;BME280;31858;46.008;8.978;2024-03-02T12:48:30;93795.78;;;6.08;100.00
45941;BME280;31858;46.008;8.978;2024-03-02T12:58:39;93795.84;;;6.12;100.00
45941;BME280;31858;46.008;8.978;2024-03-02T13:08:42;93784.78;;;6.03;100.00
45941;BME280;31858;46.008;8.978;2024-03-02T13:18:44;93788.03;;;5.93;100.00
45941;BME280;31858;46.008;8.978;2024-03-02T13:28:47;93786.56;;;5.95;100.00
45941;BME280;31858;46.008;8.978;2024-03-02T13:38:49;93790.81;;;6.03;100.00
45941;BME280;31858;46.008;8.978;2024-03-02T13:48:52;93781.72;;;6.01;100.00
45941;BME280;31858;46.008;8.978;2024-03-02T13:58:55;93773.47;;;6.06;100.00
45941;BME280;31858;46.008;8.978;2024-03-02T14:08:58;93761.78;;;6.07;100.00
45941;BME280;31858;46.008;8.978;2024-03-02T14:19:00;93753.47;;;6.08;100.00
45941;BME280;31858;46.008;8.978;2024-03-02T14:29:03;93748.19;;;6.08;100.00
45941;BME280;31858;46.008;8.978;2024-03-02T14:39:05;93756.97;;;6.16;100.00
45941;BME280;31858;46.008;8.978;2024-03-02T14:49:11;93758.41;;;6.10;100.00
45941;BME280;31858;46.008;8.978;2024-03-02T14:59:13;93759.03;;;6.00;100.00
45941;BME280;31858;46.008;8.978;2024-03-02T15:09:16;93739.06;;;6.02;100.00
45941;BME280;31858;46.008;8.978;2024-03-02T15:19:18;93732.56;;;5.96;100.00
45941;BME280;31858;46.008;8.978;2024-03-02T15:29:21;93737.50;;;5.98;100.00
45941;BME280;31858;46.008;8.978;2024-03-02T15:39:28;93737.84;;;5.96;100.00
45941;BME280;31858;46.008;8.978;2024-03-02T15:49:31;93733.28;;;5.93;100.00
45941;BME280;31858;46.008;8.978;2024-03-02T15:59:33;93741.97;;;5.94;100.00
45941;BME280;31858;46.008;8.978;2024-03-02T16:09:36;93727.03;;;6.08;100.00
45941;BME280;31858;46.008;8.978;2024-03-02T16:19:37;93740.22;;;6.05;100.00
45941;BME280;31858;46.008;8.978;2024-03-02T16:29:42;93728.94;;;6.11;100.00
45941;BME280;31858;46.008;8.978;2024-03-02T16:39:43;93761.00;;;6.06;100.00
45941;BME280;31858;46.008;8.978;2024-03-02T16:49:46;93761.78;;;6.07;100.00
45941;BME280;31858;46.008;8.978;2024-03-02T16:59:48;93768.81;;;5.96;100.00
45941;BME280;31858;46.008;8.978;2024-03-02T17:09:51;93755.28;;;6.01;100.00
45941;BME280;31858;46.008;8.978;2024-03-02T17:19:53;93739.06;;;6.02;100.00
45941;BME280;31858;46.008;8.978;2024-03-02T17:29:56;93766.34;;;6.10;100.00
45941;BME280;31858;46.008;8.978;2024-03-02T17:39:58;93756.44;;;6.03;100.00
45941;BME280;31858;46.008;8.978;2024-03-02T17:50:01;93757.88;;;5.97;100.00
45941;BME280;31858;46.008;8.978;2024-03-02T18:00:05;93757.47;;;5.95;100.00
45941;BME280;31858;46.008;8.978;2024-03-02T18:10:09;93765.72;;;5.90;100.00
45941;BME280;31858;46.008;8.978;2024-03-02T18:20:11;93759.31;;;5.91;100.00
45941;BME280;31858;46.008;8.978;2024-03-02T18:30:14;93775.53;;;5.89;100.00
45941;BME280;31858;46.008;8.978;2024-03-02T18:40:16;93767.78;;;6.04;100.00
45941;BME280;31858;46.008;8.978;2024-03-02T18:50:19;93766.22;;;5.99;100.00
45941;BME280;31858;46.008;8.978;2024-03-02T19:00:20;93761.31;;;6.01;100.00
45941;BME280;31858;46.008;8.978;2024-03-02T19:10:23;93752.84;;;5.88;100.00
45941;BME280;31858;46.008;8.978;2024-03-02T19:20:25;93766.56;;;5.98;100.00
45941;BME280;31858;46.008;8.978;2024-03-02T19:30:28;93762.66;;;5.88;100.00
45941;BME280;31858;46.008;8.978;2024-03-02T19:40:29;93763.41;;;5.88;100.00
45941;BME280;31858;46.008;8.978;2024-03-02T19:50:32;93763.09;;;5.90;100.00
45941;BME280;31858;46.008;8.978;2024-03-02T20:00:34;93786.97;;;5.97;100.00
45941;BME280;31858;46.008;8.978;2024-03-02T20:10:37;93766.16;;;5.96;100.00
45941;BME280;31858;46.008;8.978;2024-03-02T20:20:38;93764.34;;;6.00;100.00
45941;BME280;31858;46.008;8.978;2024-03-02T20:30:42;93754.28;;;6.12;100.00
45941;BME280;31858;46.008;8.978;2024-03-02T20:40:43;93751.50;;;6.02;100.00
45941;BME280;31858;46.008;8.978;2024-03-02T20:50:48;93734.00;;;6.24;100.00
45941;BME280;31858;46.008;8.978;2024-03-02T21:00:50;93754.41;;;6.23;100.00
45941;BME280;31858;46.008;8.978;2024-03-02T21:10:53;93750.94;;;6.19;100.00
45941;BME280;31858;46.008;8.978;2024-03-02T21:20:54;93756.84;;;6.05;100.00
45941;BME280;31858;46.008;8.978;2024-03-02T21:30:57;93770.03;;;6.02;100.00
45941;BME280;31858;46.008;8.978;2024-03-02T21:40:59;93738.78;;;6.11;100.00
45941;BME280;31858;46.008;8.978;2024-03-02T21:51:02;93730.88;;;6.14;100.00
45941;BME280;31858;46.008;8.978;2024-03-02T22:01:04;93702.06;;;6.43;100.00
45941;BME280;31858;46.008;8.978;2024-03-02T22:11:06;93711.50;;;6.44;100.00
45941;BME280;31858;46.008;8.978;2024-03-02T22:21:08;93711.47;;;6.40;100.00
45941;BME280;31858;46.008;8.978;2024-03-02T22:31:11;93718.22;;;6.34;100.00
45941;BME280;31858;46.008;8.978;2024-03-02T22:41:13;93733.22;;;6.23;100.00
45941;BME280;31858;46.008;8.978;2024-03-02T22:51:21;93715.22;;;6.36;100.00
45941;BME280;31858;46.008;8.978;2024-03-02T23:01:22;93705.03;;;6.38;100.00
45941;BME280;31858;46.008;8.978;2024-03-02T23:11:27;93705.72;;;6.31;100.00
45941;BME280;31858;46.008;8.978;2024-03-02T23:21:28;93693.22;;;6.28;100.00
45941;BME280;31858;46.008;8.978;2024-03-02T23:31:31;93700.41;;;6.28;100.00
45941;BME280;31858;46.008;8.978;2024-03-02T23:41:33;93671.84;;;6.51;100.00
45941;BME280;31858;46.008;8.978;2024-03-02T23:51:36;93618.03;;;6.84;100.00
